sensor_id;sensor_type;location;lat;lon;timestamp;temperature;humidity
13569;DHT22;6856;51.460;7.158;2023-08-21T00:00:34;23.80;57.30
13569;DHT22;6856;51.460;7.158;2023-08-21T00:03:11;23.70;57.20
13569;DHT22;6856;51.460;7.158;2023-08-21T00:05:45;23.70;57.30
13569;DHT22;6856;51.460;7.158;2023-08-21T00:08:19;23.70;57.30
13569;DHT22;6856;51.460;7.158;2023-08-21T00:10:53;23.60;57.30
13569;DHT22;6856;51.460;7.158;2023-08-21T00:13:28;23.60;57.40
13569;DHT22;6856;51.460;7.158;2023-08-21T00:16:04;23.60;57.30
13569;DHT22;6856;51.460;7.158;2023-08-21T00:18:38;23.60;57.40
13569;DHT22;6856;51.460;7.158;2023-08-21T00:21:11;23.60;57.50
13569;DHT22;6856;51.460;7.158;2023-08-21T00:23:46;23.50;57.40
13569;DHT22;6856;51.460;7.158;2023-08-21T00:26:20;23.60;57.50
13569;DHT22;6856;51.460;7.158;2023-08-21T00:28:54;23.50;57.50
13569;DHT22;6856;51.460;7.158;2023-08-21T00:31:29;23.50;57.50
13569;DHT22;6856;51.460;7.158;2023-08-21T00:34:04;23.50;57.60
13569;DHT22;6856;51.460;7.158;2023-08-21T00:36:38;23.40;57.60
13569;DHT22;6856;51.460;7.158;2023-08-21T00:39:13;23.40;57.60
13569;DHT22;6856;51.460;7.158;2023-08-21T00:41:47;23.40;57.50
13569;DHT22;6856;51.460;7.158;2023-08-21T00:44:20;23.40;57.60
13569;DHT22;6856;51.460;7.158;2023-08-21T00:46:56;23.30;57.70
13569;DHT22;6856;51.460;7.158;2023-08-21T00:49:30;23.30;57.70
13569;DHT22;6856;51.460;7.158;2023-08-21T00:52:06;23.30;57.80
13569;DHT22;6856;51.460;7.158;2023-08-21T00:54:42;23.30;57.80
13569;DHT22;6856;51.460;7.158;2023-08-21T00:57:16;23.20;57.70
13569;DHT22;6856;51.460;7.158;2023-08-21T00:59:50;23.20;57.80
13569;DHT22;6856;51.460;7.158;2023-08-21T01:02:26;23.20;57.80
13569;DHT22;6856;51.460;7.158;2023-08-21T01:05:01;23.20;57.80
13569;DHT22;6856;51.460;7.158;2023-08-21T01:07:41;23.20;57.80
13569;DHT22;6856;51.460;7.158;2023-08-21T01:10:43;23.20;58.00
13569;DHT22;6856;51.460;7.158;2023-08-21T01:13:34;23.10;58.00
13569;DHT22;6856;51.460;7.158;2023-08-21T01:16:21;23.10;58.00
13569;DHT22;6856;51.460;7.158;2023-08-21T01:18:59;23.10;57.90
13569;DHT22;6856;51.460;7.158;2023-08-21T01:21:34;23.00;58.00
13569;DHT22;6856;51.460;7.158;2023-08-21T01:24:10;23.00;57.90
13569;DHT22;6856;51.460;7.158;2023-08-21T01:26:43;23.00;57.90
13569;DHT22;6856;51.460;7.158;2023-08-21T01:29:17;23.00;58.00
13569;DHT22;6856;51.460;7.158;2023-08-21T01:31:57;22.90;58.10
13569;DHT22;6856;51.460;7.158;2023-08-21T01:34:39;22.90;58.20
13569;DHT22;6856;51.460;7.158;2023-08-21T01:37:15;22.90;58.10
13569;DHT22;6856;51.460;7.158;2023-08-21T01:40:00;22.90;58.00
13569;DHT22;6856;51.460;7.158;2023-08-21T01:42:34;22.80;58.20
13569;DHT22;6856;51.460;7.158;2023-08-21T01:45:09;22.80;58.60
13569;DHT22;6856;51.460;7.158;2023-08-21T01:47:43;22.80;58.20
13569;DHT22;6856;51.460;7.158;2023-08-21T01:50:17;22.80;58.10
13569;DHT22;6856;51.460;7.158;2023-08-21T01:52:51;22.80;58.10
13569;DHT22;6856;51.460;7.158;2023-08-21T01:55:52;22.70;58.10
13569;DHT22;6856;51.460;7.158;2023-08-21T01:58:26;22.70;58.50
13569;DHT22;6856;51.460;7.158;2023-08-21T02:01:01;22.70;58.20
13569;DHT22;6856;51.460;7.158;2023-08-21T02:03:36;22.70;58.20
13569;DHT22;6856;51.460;7.158;2023-08-21T02:06:12;22.60;58.20
13569;DHT22;6856;51.460;7.158;2023-08-21T02:08:47;22.60;58.20
13569;DHT22;6856;51.460;7.158;2023-08-21T02:11:23;22.60;58.20
13569;DHT22;6856;51.460;7.158;2023-08-21T02:13:57;22.60;58.40
13569;DHT22;6856;51.460;7.158;2023-08-21T02:16:30;22.50;58.30
13569;DHT22;6856;51.460;7.158;2023-08-21T02:19:05;22.50;58.40
13569;DHT22;6856;51.460;7.158;2023-08-21T02:21:39;22.50;58.40
13569;DHT22;6856;51.460;7.158;2023-08-21T02:24:12;22.50;58.50
13569;DHT22;6856;51.460;7.158;2023-08-21T02:26:48;22.50;58.50
13569;DHT22;6856;51.460;7.158;2023-08-21T02:29:22;22.40;58.40
13569;DHT22;6856;51.460;7.158;2023-08-21T02:31:56;22.40;58.50
13569;DHT22;6856;51.460;7.158;2023-08-21T02:34:31;22.40;58.60
13569;DHT22;6856;51.460;7.158;2023-08-21T02:37:05;22.40;58.50
13569;DHT22;6856;51.460;7.158;2023-08-21T02:39:39;22.40;58.60
13569;DHT22;6856;51.460;7.158;2023-08-21T02:42:16;22.40;58.60
13569;DHT22;6856;51.460;7.158;2023-08-21T02:44:50;22.30;58.60
13569;DHT22;6856;51.460;7.158;2023-08-21T02:47:24;22.30;58.60
13569;DHT22;6856;51.460;7.158;2023-08-21T02:49:58;22.30;58.50
13569;DHT22;6856;51.460;7.158;2023-08-21T02:52:32;22.30;58.60
13569;DHT22;6856;51.460;7.158;2023-08-21T02:55:08;22.20;58.70
13569;DHT22;6856;51.460;7.158;2023-08-21T02:57:44;22.20;58.80
13569;DHT22;6856;51.460;7.158;2023-08-21T03:00:17;22.20;58.70
13569;DHT22;6856;51.460;7.158;2023-08-21T03:02:52;22.20;58.80
13569;DHT22;6856;51.460;7.158;2023-08-21T03:05:26;22.20;58.90
13569;DHT22;6856;51.460;7.158;2023-08-21T03:08:00;22.20;58.80
13569;DHT22;6856;51.460;7.158;2023-08-21T03:10:35;22.10;58.80
13569;DHT22;6856;51.460;7.158;2023-08-21T03:13:12;22.10;58.80
13569;DHT22;6856;51.460;7.158;2023-08-21T03:15:48;22.10;59.00
13569;DHT22;6856;51.460;7.158;2023-08-21T03:18:22;22.10;58.90
13569;DHT22;6856;51.460;7.158;2023-08-21T03:20:56;22.10;58.90
13569;DHT22;6856;51.460;7.158;2023-08-21T03:23:30;21.80;58.90
13569;DHT22;6856;51.460;7.158;2023-08-21T03:26:05;22.00;58.90
13569;DHT22;6856;51.460;7.158;2023-08-21T03:28:42;22.00;59.00
13569;DHT22;6856;51.460;7.158;2023-08-21T03:31:17;22.00;59.10
13569;DHT22;6856;51.460;7.158;2023-08-21T03:33:51;21.70;58.80
13569;DHT22;6856;51.460;7.158;2023-08-21T03:36:26;22.00;59.10
13569;DHT22;6856;51.460;7.158;2023-08-21T03:39:05;21.90;59.20
13569;DHT22;6856;51.460;7.158;2023-08-21T03:41:39;21.90;59.20
13569;DHT22;6856;51.460;7.158;2023-08-21T03:44:16;21.90;59.10
13569;DHT22;6856;51.460;7.158;2023-08-21T03:46:50;21.90;59.80
13569;DHT22;6856;51.460;7.158;2023-08-21T03:49:24;21.90;59.20
13569;DHT22;6856;51.460;7.158;2023-08-21T03:51:58;21.80;59.20
13569;DHT22;6856;51.460;7.158;2023-08-21T03:54:32;21.80;59.10
13569;DHT22;6856;51.460;7.158;2023-08-21T03:57:06;21.80;59.30
13569;DHT22;6856;51.460;7.158;2023-08-21T03:59:43;21.80;59.30
13569;DHT22;6856;51.460;7.158;2023-08-21T04:02:18;21.80;59.30
13569;DHT22;6856;51.460;7.158;2023-08-21T04:04:56;21.80;59.30
13569;DHT22;6856;51.460;7.158;2023-08-21T04:07:30;21.80;59.40
13569;DHT22;6856;51.460;7.158;2023-08-21T04:10:04;21.70;59.30
13569;DHT22;6856;51.460;7.158;2023-08-21T04:12:39;21.70;59.40
13569;DHT22;6856;51.460;7.158;2023-08-21T04:15:14;21.70;59.50
13569;DHT22;6856;51.460;7.158;2023-08-21T04:17:48;21.70;59.40
13569;DHT22;6856;51.460;7.158;2023-08-21T04:20:23;21.70;59.40
13569;DHT22;6856;51.460;7.158;2023-08-21T04:22:58;21.70;59.50
13569;DHT22;6856;51.460;7.158;2023-08-21T04:25:33;21.70;59.50
13569;DHT22;6856;51.460;7.158;2023-08-21T04:28:07;21.60;59.60
13569;DHT22;6856;51.460;7.158;2023-08-21T04:30:44;21.60;59.60
13569;DHT22;6856;51.460;7.158;2023-08-21T04:33:18;21.60;59.60
13569;DHT22;6856;51.460;7.158;2023-08-21T04:35:53;21.60;59.70
13569;DHT22;6856;51.460;7.158;2023-08-21T04:38:27;21.60;59.60
13569;DHT22;6856;51.460;7.158;2023-08-21T04:41:08;21.60;59.70
13569;DHT22;6856;51.460;7.158;2023-08-21T04:43:43;21.60;59.90
13569;DHT22;6856;51.460;7.158;2023-08-21T04:46:18;21.60;59.80
13569;DHT22;6856;51.460;7.158;2023-08-21T04:48:53;21.60;59.90
13569;DHT22;6856;51.460;7.158;2023-08-21T04:51:30;21.60;59.90
13569;DHT22;6856;51.460;7.158;2023-08-21T04:54:04;21.50;60.10
13569;DHT22;6856;51.460;7.158;2023-08-21T04:56:38;21.50;60.00
13569;DHT22;6856;51.460;7.158;2023-08-21T04:59:12;21.50;60.10
13569;DHT22;6856;51.460;7.158;2023-08-21T05:01:48;21.50;60.10
13569;DHT22;6856;51.460;7.158;2023-08-21T05:04:24;21.50;60.00
13569;DHT22;6856;51.460;7.158;2023-08-21T05:06:59;21.60;60.40
13569;DHT22;6856;51.460;7.158;2023-08-21T05:09:34;21.50;60.40
13569;DHT22;6856;51.460;7.158;2023-08-21T05:12:08;21.50;60.20
13569;DHT22;6856;51.460;7.158;2023-08-21T05:14:43;21.50;60.40
13569;DHT22;6856;51.460;7.158;2023-08-21T05:17:19;21.60;60.40
13569;DHT22;6856;51.460;7.158;2023-08-21T05:19:53;21.60;60.70
13569;DHT22;6856;51.460;7.158;2023-08-21T05:22:26;21.50;60.60
13569;DHT22;6856;51.460;7.158;2023-08-21T05:25:00;21.60;60.70
13569;DHT22;6856;51.460;7.158;2023-08-21T05:27:34;21.60;60.40
13569;DHT22;6856;51.460;7.158;2023-08-21T05:30:35;21.60;61.60
13569;DHT22;6856;51.460;7.158;2023-08-21T05:33:15;21.60;61.30
13569;DHT22;6856;51.460;7.158;2023-08-21T05:35:49;21.60;61.00
13569;DHT22;6856;51.460;7.158;2023-08-21T05:38:23;21.70;60.90
13569;DHT22;6856;51.460;7.158;2023-08-21T05:40:58;21.70;61.00
13569;DHT22;6856;51.460;7.158;2023-08-21T05:43:33;21.70;60.80
13569;DHT22;6856;51.460;7.158;2023-08-21T05:46:07;21.70;61.00
13569;DHT22;6856;51.460;7.158;2023-08-21T05:48:44;21.80;61.30
13569;DHT22;6856;51.460;7.158;2023-08-21T05:51:18;21.80;61.10
13569;DHT22;6856;51.460;7.158;2023-08-21T05:53:52;21.80;61.20
13569;DHT22;6856;51.460;7.158;2023-08-21T05:56:26;21.80;61.20
13569;DHT22;6856;51.460;7.158;2023-08-21T05:59:01;21.80;61.40
13569;DHT22;6856;51.460;7.158;2023-08-21T06:01:36;21.80;61.40
13569;DHT22;6856;51.460;7.158;2023-08-21T06:04:11;21.90;61.60
13569;DHT22;6856;51.460;7.158;2023-08-21T06:06:45;22.00;61.20
13569;DHT22;6856;51.460;7.158;2023-08-21T06:09:20;22.00;61.90
13569;DHT22;6856;51.460;7.158;2023-08-21T06:11:54;22.00;62.20
13569;DHT22;6856;51.460;7.158;2023-08-21T06:14:28;22.00;62.30
13569;DHT22;6856;51.460;7.158;2023-08-21T06:17:03;22.10;62.70
13569;DHT22;6856;51.460;7.158;2023-08-21T06:19:40;22.10;62.80
13569;DHT22;6856;51.460;7.158;2023-08-21T06:22:14;22.20;63.00
13569;DHT22;6856;51.460;7.158;2023-08-21T06:24:48;22.00;62.70
13569;DHT22;6856;51.460;7.158;2023-08-21T06:27:23;22.20;62.40
13569;DHT22;6856;51.460;7.158;2023-08-21T06:29:57;22.30;62.50
13569;DHT22;6856;51.460;7.158;2023-08-21T06:32:31;22.30;62.40
13569;DHT22;6856;51.460;7.158;2023-08-21T06:35:37;22.30;62.40
13569;DHT22;6856;51.460;7.158;2023-08-21T06:38:12;22.40;62.50
13569;DHT22;6856;51.460;7.158;2023-08-21T06:40:46;22.40;62.00
13569;DHT22;6856;51.460;7.158;2023-08-21T06:43:21;22.40;62.10
13569;DHT22;6856;51.460;7.158;2023-08-21T06:45:55;22.40;62.60
13569;DHT22;6856;51.460;7.158;2023-08-21T06:48:30;22.40;62.60
13569;DHT22;6856;51.460;7.158;2023-08-21T06:51:06;22.50;62.80
13569;DHT22;6856;51.460;7.158;2023-08-21T06:54:05;22.50;62.90
13569;DHT22;6856;51.460;7.158;2023-08-21T06:56:40;22.60;62.90
13569;DHT22;6856;51.460;7.158;2023-08-21T06:59:15;22.70;62.50
13569;DHT22;6856;51.460;7.158;2023-08-21T07:01:49;22.80;62.70
13569;DHT22;6856;51.460;7.158;2023-08-21T07:04:26;22.80;62.50
13569;DHT22;6856;51.460;7.158;2023-08-21T07:07:02;22.90;62.80
13569;DHT22;6856;51.460;7.158;2023-08-21T07:09:36;22.90;62.70
13569;DHT22;6856;51.460;7.158;2023-08-21T07:12:10;23.00;62.50
13569;DHT22;6856;51.460;7.158;2023-08-21T07:14:45;23.00;62.20
13569;DHT22;6856;51.460;7.158;2023-08-21T07:17:19;23.10;62.00
13569;DHT22;6856;51.460;7.158;2023-08-21T07:19:55;23.10;62.10
13569;DHT22;6856;51.460;7.158;2023-08-21T07:22:31;23.20;61.90
13569;DHT22;6856;51.460;7.158;2023-08-21T07:25:07;23.20;61.70
13569;DHT22;6856;51.460;7.158;2023-08-21T07:27:42;23.20;61.40
13569;DHT22;6856;51.460;7.158;2023-08-21T07:30:16;23.30;61.70
13569;DHT22;6856;51.460;7.158;2023-08-21T07:32:52;23.30;62.40
13569;DHT22;6856;51.460;7.158;2023-08-21T07:35:27;23.30;62.30
13569;DHT22;6856;51.460;7.158;2023-08-21T07:38:03;23.40;62.00
13569;DHT22;6856;51.460;7.158;2023-08-21T07:40:37;23.40;61.70
13569;DHT22;6856;51.460;7.158;2023-08-21T07:43:10;23.40;61.80
13569;DHT22;6856;51.460;7.158;2023-08-21T07:45:44;23.40;61.80
13569;DHT22;6856;51.460;7.158;2023-08-21T07:48:18;23.50;61.70
13569;DHT22;6856;51.460;7.158;2023-08-21T07:50:52;23.50;62.10
13569;DHT22;6856;51.460;7.158;2023-08-21T07:53:28;23.50;62.00
13569;DHT22;6856;51.460;7.158;2023-08-21T07:56:04;23.60;62.00
13569;DHT22;6856;51.460;7.158;2023-08-21T07:58:38;23.60;62.50
13569;DHT22;6856;51.460;7.158;2023-08-21T08:01:13;23.70;62.80
13569;DHT22;6856;51.460;7.158;2023-08-21T08:03:47;23.80;62.90
13569;DHT22;6856;51.460;7.158;2023-08-21T08:06:22;23.80;62.60
13569;DHT22;6856;51.460;7.158;2023-08-21T08:08:58;23.90;62.20
13569;DHT22;6856;51.460;7.158;2023-08-21T08:11:32;24.00;62.00
13569;DHT22;6856;51.460;7.158;2023-08-21T08:14:06;24.10;62.20
13569;DHT22;6856;51.460;7.158;2023-08-21T08:16:40;24.20;61.50
13569;DHT22;6856;51.460;7.158;2023-08-21T08:19:14;24.20;61.20
13569;DHT22;6856;51.460;7.158;2023-08-21T08:21:50;24.30;61.10
13569;DHT22;6856;51.460;7.158;2023-08-21T08:24:42;24.40;60.50
13569;DHT22;6856;51.460;7.158;2023-08-21T08:27:18;24.50;60.10
13569;DHT22;6856;51.460;7.158;2023-08-21T08:29:52;24.60;60.40
13569;DHT22;6856;51.460;7.158;2023-08-21T08:32:26;24.70;60.30
13569;DHT22;6856;51.460;7.158;2023-08-21T08:35:00;24.70;60.50
13569;DHT22;6856;51.460;7.158;2023-08-21T08:37:35;24.90;60.70
13569;DHT22;6856;51.460;7.158;2023-08-21T08:40:16;25.00;60.60
13569;DHT22;6856;51.460;7.158;2023-08-21T08:42:50;25.10;59.60
13569;DHT22;6856;51.460;7.158;2023-08-21T08:45:29;25.20;59.40
13569;DHT22;6856;51.460;7.158;2023-08-21T08:48:06;25.30;59.30
13569;DHT22;6856;51.460;7.158;2023-08-21T08:50:44;25.30;59.50
13569;DHT22;6856;51.460;7.158;2023-08-21T08:53:24;25.50;59.20
13569;DHT22;6856;51.460;7.158;2023-08-21T08:56:03;25.70;59.30
13569;DHT22;6856;51.460;7.158;2023-08-21T08:58:37;25.80;59.00
13569;DHT22;6856;51.460;7.158;2023-08-21T09:01:11;25.90;58.70
13569;DHT22;6856;51.460;7.158;2023-08-21T09:03:47;26.00;58.90
13569;DHT22;6856;51.460;7.158;2023-08-21T09:06:23;26.20;58.80
13569;DHT22;6856;51.460;7.158;2023-08-21T09:08:59;26.30;58.40
13569;DHT22;6856;51.460;7.158;2023-08-21T09:11:35;26.40;58.30
13569;DHT22;6856;51.460;7.158;2023-08-21T09:14:15;26.50;58.60
13569;DHT22;6856;51.460;7.158;2023-08-21T09:17:00;26.60;58.40
13569;DHT22;6856;51.460;7.158;2023-08-21T09:19:36;26.70;58.00
13569;DHT22;6856;51.460;7.158;2023-08-21T09:22:13;26.90;58.30
13569;DHT22;6856;51.460;7.158;2023-08-21T09:25:02;27.00;58.30
13569;DHT22;6856;51.460;7.158;2023-08-21T09:27:44;27.10;57.90
13569;DHT22;6856;51.460;7.158;2023-08-21T09:30:25;27.20;57.70
13569;DHT22;6856;51.460;7.158;2023-08-21T09:32:59;27.40;57.10
13569;DHT22;6856;51.460;7.158;2023-08-21T09:35:35;27.50;56.90
13569;DHT22;6856;51.460;7.158;2023-08-21T09:38:09;27.60;56.60
13569;DHT22;6856;51.460;7.158;2023-08-21T09:40:51;27.60;56.90
13569;DHT22;6856;51.460;7.158;2023-08-21T09:43:28;27.70;56.10
13569;DHT22;6856;51.460;7.158;2023-08-21T09:46:03;27.80;55.90
13569;DHT22;6856;51.460;7.158;2023-08-21T09:48:38;27.90;56.00
13569;DHT22;6856;51.460;7.158;2023-08-21T09:51:13;28.00;56.40
13569;DHT22;6856;51.460;7.158;2023-08-21T09:53:48;28.10;56.20
13569;DHT22;6856;51.460;7.158;2023-08-21T09:56:24;28.20;56.20
13569;DHT22;6856;51.460;7.158;2023-08-21T09:59:00;28.30;56.20
13569;DHT22;6856;51.460;7.158;2023-08-21T10:01:36;28.40;56.00
13569;DHT22;6856;51.460;7.158;2023-08-21T10:04:13;28.50;55.30
13569;DHT22;6856;51.460;7.158;2023-08-21T10:06:47;28.60;54.80
13569;DHT22;6856;51.460;7.158;2023-08-21T10:09:29;28.70;55.00
13569;DHT22;6856;51.460;7.158;2023-08-21T10:12:05;28.80;54.70
13569;DHT22;6856;51.460;7.158;2023-08-21T10:14:46;28.90;54.70
13569;DHT22;6856;51.460;7.158;2023-08-21T10:17:21;28.90;54.30
13569;DHT22;6856;51.460;7.158;2023-08-21T10:20:02;29.00;54.40
13569;DHT22;6856;51.460;7.158;2023-08-21T10:22:43;29.10;53.70
13569;DHT22;6856;51.460;7.158;2023-08-21T10:25:20;29.20;54.10
13569;DHT22;6856;51.460;7.158;2023-08-21T10:27:56;29.20;53.70
13569;DHT22;6856;51.460;7.158;2023-08-21T10:30:42;29.30;54.00
13569;DHT22;6856;51.460;7.158;2023-08-21T10:33:45;29.40;53.40
13569;DHT22;6856;51.460;7.158;2023-08-21T10:36:38;29.50;53.30
13569;DHT22;6856;51.460;7.158;2023-08-21T10:39:55;29.50;53.80
13569;DHT22;6856;51.460;7.158;2023-08-21T10:42:39;29.60;52.50
13569;DHT22;6856;51.460;7.158;2023-08-21T10:45:49;29.60;52.50
13569;DHT22;6856;51.460;7.158;2023-08-21T10:48:28;29.60;52.70
13569;DHT22;6856;51.460;7.158;2023-08-21T10:51:03;29.50;53.10
13569;DHT22;6856;51.460;7.158;2023-08-21T10:53:37;29.50;53.10
13569;DHT22;6856;51.460;7.158;2023-08-21T10:56:15;29.50;53.50
13569;DHT22;6856;51.460;7.158;2023-08-21T10:58:53;29.50;53.20
13569;DHT22;6856;51.460;7.158;2023-08-21T11:01:42;29.50;53.20
13569;DHT22;6856;51.460;7.158;2023-08-21T11:04:18;29.60;53.00
13569;DHT22;6856;51.460;7.158;2023-08-21T11:06:52;29.50;53.40
13569;DHT22;6856;51.460;7.158;2023-08-21T11:09:29;29.60;53.30
13569;DHT22;6856;51.460;7.158;2023-08-21T11:12:06;29.60;53.70
13569;DHT22;6856;51.460;7.158;2023-08-21T11:14:41;29.70;53.20
13569;DHT22;6856;51.460;7.158;2023-08-21T11:17:18;29.80;53.10
13569;DHT22;6856;51.460;7.158;2023-08-21T11:19:52;29.90;52.10
13569;DHT22;6856;51.460;7.158;2023-08-21T11:22:29;29.90;52.50
13569;DHT22;6856;51.460;7.158;2023-08-21T11:25:06;30.00;52.60
13569;DHT22;6856;51.460;7.158;2023-08-21T11:27:40;30.10;52.50
13569;DHT22;6856;51.460;7.158;2023-08-21T11:30:14;30.20;51.90
13569;DHT22;6856;51.460;7.158;2023-08-21T11:33:15;30.20;51.90
13569;DHT22;6856;51.460;7.158;2023-08-21T11:35:50;30.40;51.60
13569;DHT22;6856;51.460;7.158;2023-08-21T11:38:58;30.40;51.50
13569;DHT22;6856;51.460;7.158;2023-08-21T11:41:32;30.50;51.20
13569;DHT22;6856;51.460;7.158;2023-08-21T11:44:51;30.60;51.10
13569;DHT22;6856;51.460;7.158;2023-08-21T11:47:31;30.60;51.50
13569;DHT22;6856;51.460;7.158;2023-08-21T11:50:10;30.60;51.10
13569;DHT22;6856;51.460;7.158;2023-08-21T11:52:45;30.70;51.70
13569;DHT22;6856;51.460;7.158;2023-08-21T11:55:19;30.70;51.30
13569;DHT22;6856;51.460;7.158;2023-08-21T11:57:54;30.80;51.50
13569;DHT22;6856;51.460;7.158;2023-08-21T12:00:29;30.80;50.80
13569;DHT22;6856;51.460;7.158;2023-08-21T12:03:04;30.90;50.50
13569;DHT22;6856;51.460;7.158;2023-08-21T12:05:44;30.90;50.60
13569;DHT22;6856;51.460;7.158;2023-08-21T12:08:19;30.90;50.00
13569;DHT22;6856;51.460;7.158;2023-08-21T12:10:54;31.00;49.80
13569;DHT22;6856;51.460;7.158;2023-08-21T12:13:27;31.00;50.40
13569;DHT22;6856;51.460;7.158;2023-08-21T12:16:08;31.00;50.20
13569;DHT22;6856;51.460;7.158;2023-08-21T12:18:45;31.10;50.40
13569;DHT22;6856;51.460;7.158;2023-08-21T12:21:21;31.10;49.60
13569;DHT22;6856;51.460;7.158;2023-08-21T12:23:57;31.10;49.80
13569;DHT22;6856;51.460;7.158;2023-08-21T12:26:32;31.10;49.00
13569;DHT22;6856;51.460;7.158;2023-08-21T12:29:21;31.00;49.90
13569;DHT22;6856;51.460;7.158;2023-08-21T12:31:55;31.10;49.50
13569;DHT22;6856;51.460;7.158;2023-08-21T12:34:29;31.00;49.40
13569;DHT22;6856;51.460;7.158;2023-08-21T12:37:05;31.00;49.40
13569;DHT22;6856;51.460;7.158;2023-08-21T12:39:40;31.10;49.40
13569;DHT22;6856;51.460;7.158;2023-08-21T12:42:14;31.10;49.60
13569;DHT22;6856;51.460;7.158;2023-08-21T12:44:56;31.10;49.30
13569;DHT22;6856;51.460;7.158;2023-08-21T12:47:32;31.10;49.70
13569;DHT22;6856;51.460;7.158;2023-08-21T12:50:07;31.20;49.30
13569;DHT22;6856;51.460;7.158;2023-08-21T12:53:10;31.20;49.20
13569;DHT22;6856;51.460;7.158;2023-08-21T12:55:44;31.30;49.10
13569;DHT22;6856;51.460;7.158;2023-08-21T12:58:18;31.30;49.00
13569;DHT22;6856;51.460;7.158;2023-08-21T13:00:56;31.40;49.00
13569;DHT22;6856;51.460;7.158;2023-08-21T13:03:32;31.40;49.10
13569;DHT22;6856;51.460;7.158;2023-08-21T13:06:13;31.40;48.70
13569;DHT22;6856;51.460;7.158;2023-08-21T13:08:50;31.50;49.10
13569;DHT22;6856;51.460;7.158;2023-08-21T13:11:23;31.50;48.20
13569;DHT22;6856;51.460;7.158;2023-08-21T13:13:57;31.50;48.30
13569;DHT22;6856;51.460;7.158;2023-08-21T13:16:31;31.50;47.50
13569;DHT22;6856;51.460;7.158;2023-08-21T13:19:06;31.60;48.10
13569;DHT22;6856;51.460;7.158;2023-08-21T13:21:41;31.60;48.20
13569;DHT22;6856;51.460;7.158;2023-08-21T13:24:16;31.60;48.60
13569;DHT22;6856;51.460;7.158;2023-08-21T13:26:52;31.60;47.60
13569;DHT22;6856;51.460;7.158;2023-08-21T13:29:25;31.60;48.10
13569;DHT22;6856;51.460;7.158;2023-08-21T13:31:59;31.60;47.70
13569;DHT22;6856;51.460;7.158;2023-08-21T13:34:33;31.60;48.20
13569;DHT22;6856;51.460;7.158;2023-08-21T13:37:07;31.70;48.40
13569;DHT22;6856;51.460;7.158;2023-08-21T13:39:43;31.50;47.80
13569;DHT22;6856;51.460;7.158;2023-08-21T13:42:19;31.40;48.30
13569;DHT22;6856;51.460;7.158;2023-08-21T13:44:53;31.40;48.20
13569;DHT22;6856;51.460;7.158;2023-08-21T13:47:29;31.40;48.30
13569;DHT22;6856;51.460;7.158;2023-08-21T13:50:06;31.30;48.40
13569;DHT22;6856;51.460;7.158;2023-08-21T13:52:43;31.30;48.10
13569;DHT22;6856;51.460;7.158;2023-08-21T13:55:23;31.30;48.40
13569;DHT22;6856;51.460;7.158;2023-08-21T13:58:00;31.30;48.60
13569;DHT22;6856;51.460;7.158;2023-08-21T14:00:35;31.30;48.30
13569;DHT22;6856;51.460;7.158;2023-08-21T14:03:10;31.30;48.00
13569;DHT22;6856;51.460;7.158;2023-08-21T14:05:45;31.30;48.10
13569;DHT22;6856;51.460;7.158;2023-08-21T14:08:20;31.20;48.20
13569;DHT22;6856;51.460;7.158;2023-08-21T14:10:55;31.20;48.30
13569;DHT22;6856;51.460;7.158;2023-08-21T14:13:29;31.20;48.70
13569;DHT22;6856;51.460;7.158;2023-08-21T14:16:05;31.20;48.40
13569;DHT22;6856;51.460;7.158;2023-08-21T14:18:39;31.10;48.30
13569;DHT22;6856;51.460;7.158;2023-08-21T14:21:14;31.10;47.50
13569;DHT22;6856;51.460;7.158;2023-08-21T14:23:50;31.10;48.20
13569;DHT22;6856;51.460;7.158;2023-08-21T14:26:27;31.00;48.20
13569;DHT22;6856;51.460;7.158;2023-08-21T14:29:01;31.00;48.60
13569;DHT22;6856;51.460;7.158;2023-08-21T14:31:37;30.90;48.80
13569;DHT22;6856;51.460;7.158;2023-08-21T14:34:13;30.90;48.80
13569;DHT22;6856;51.460;7.158;2023-08-21T14:36:48;30.80;49.00
13569;DHT22;6856;51.460;7.158;2023-08-21T14:39:22;30.80;49.10
13569;DHT22;6856;51.460;7.158;2023-08-21T14:42:00;30.80;49.10
13569;DHT22;6856;51.460;7.158;2023-08-21T14:44:34;30.70;49.10
13569;DHT22;6856;51.460;7.158;2023-08-21T14:47:08;30.70;48.60
13569;DHT22;6856;51.460;7.158;2023-08-21T14:49:43;30.70;48.10
13569;DHT22;6856;51.460;7.158;2023-08-21T14:52:17;30.60;48.60
13569;DHT22;6856;51.460;7.158;2023-08-21T14:54:52;30.60;49.00
13569;DHT22;6856;51.460;7.158;2023-08-21T14:57:28;30.60;48.50
13569;DHT22;6856;51.460;7.158;2023-08-21T15:00:04;30.60;48.50
13569;DHT22;6856;51.460;7.158;2023-08-21T15:02:42;30.60;49.00
13569;DHT22;6856;51.460;7.158;2023-08-21T15:05:21;30.70;48.90
13569;DHT22;6856;51.460;7.158;2023-08-21T15:07:55;30.70;48.90
13569;DHT22;6856;51.460;7.158;2023-08-21T15:11:00;30.80;48.70
13569;DHT22;6856;51.460;7.158;2023-08-21T15:13:37;30.80;48.70
13569;DHT22;6856;51.460;7.158;2023-08-21T15:16:11;30.80;48.80
13569;DHT22;6856;51.460;7.158;2023-08-21T15:18:47;30.80;48.90
13569;DHT22;6856;51.460;7.158;2023-08-21T15:21:24;30.80;48.40
13569;DHT22;6856;51.460;7.158;2023-08-21T15:24:01;30.80;48.20
13569;DHT22;6856;51.460;7.158;2023-08-21T15:26:39;30.90;48.20
13569;DHT22;6856;51.460;7.158;2023-08-21T15:29:15;30.90;48.10
13569;DHT22;6856;51.460;7.158;2023-08-21T15:31:51;30.80;47.80
13569;DHT22;6856;51.460;7.158;2023-08-21T15:34:26;30.80;48.10
13569;DHT22;6856;51.460;7.158;2023-08-21T15:37:01;30.80;48.50
13569;DHT22;6856;51.460;7.158;2023-08-21T15:39:36;30.80;48.40
13569;DHT22;6856;51.460;7.158;2023-08-21T15:42:13;30.70;48.20
13569;DHT22;6856;51.460;7.158;2023-08-21T15:44:49;30.60;48.70
13569;DHT22;6856;51.460;7.158;2023-08-21T15:47:23;30.60;47.80
13569;DHT22;6856;51.460;7.158;2023-08-21T15:50:18;30.50;48.20
13569;DHT22;6856;51.460;7.158;2023-08-21T15:52:54;30.50;48.40
13569;DHT22;6856;51.460;7.158;2023-08-21T15:55:29;30.50;47.40
13569;DHT22;6856;51.460;7.158;2023-08-21T15:58:04;30.20;48.10
13569;DHT22;6856;51.460;7.158;2023-08-21T16:00:41;30.40;48.40
13569;DHT22;6856;51.460;7.158;2023-08-21T16:03:17;30.40;48.30
13569;DHT22;6856;51.460;7.158;2023-08-21T16:05:52;30.40;48.50
13569;DHT22;6856;51.460;7.158;2023-08-21T16:08:26;30.40;48.20
13569;DHT22;6856;51.460;7.158;2023-08-21T16:11:03;30.40;48.10
13569;DHT22;6856;51.460;7.158;2023-08-21T16:13:39;30.40;47.80
13569;DHT22;6856;51.460;7.158;2023-08-21T16:16:16;30.30;47.90
13569;DHT22;6856;51.460;7.158;2023-08-21T16:18:49;30.30;48.00
13569;DHT22;6856;51.460;7.158;2023-08-21T16:21:24;30.30;48.00
13569;DHT22;6856;51.460;7.158;2023-08-21T16:24:03;30.20;47.90
13569;DHT22;6856;51.460;7.158;2023-08-21T16:26:37;30.20;48.20
13569;DHT22;6856;51.460;7.158;2023-08-21T16:29:14;30.20;48.30
13569;DHT22;6856;51.460;7.158;2023-08-21T16:31:51;30.20;49.00
13569;DHT22;6856;51.460;7.158;2023-08-21T16:34:26;30.20;48.40
13569;DHT22;6856;51.460;7.158;2023-08-21T16:37:03;30.20;47.90
13569;DHT22;6856;51.460;7.158;2023-08-21T16:43:00;30.20;47.90
13569;DHT22;6856;51.460;7.158;2023-08-21T16:45:34;30.20;48.10
13569;DHT22;6856;51.460;7.158;2023-08-21T16:48:11;30.10;47.80